createdAt,value
2018-08-17T00:00:15.785Z,27.70
2018-08-17T00:03:23.840Z,27.80
2018-08-17T00:06:30.561Z,27.80
2018-08-17T00:09:39.036Z,27.80
2018-08-17T00:12:47.154Z,27.80
2018-08-17T00:15:57.282Z,27.80
2018-08-17T00:19:08.991Z,27.80
2018-08-17T00:22:18.505Z,27.80
2018-08-17T00:25:28.070Z,27.80
2018-08-17T00:28:38.368Z,27.80
2018-08-17T00:31:47.427Z,27.80
2018-08-17T00:34:56.363Z,27.80
2018-08-17T00:38:05.755Z,27.80
2018-08-17T00:41:15.607Z,27.80
2018-08-17T00:44:24.283Z,27.80
2018-08-17T00:47:33.433Z,27.80
2018-08-17T00:50:40.884Z,27.80
2018-08-17T00:53:48.588Z,27.80
2018-08-17T00:56:56.306Z,27.80
2018-08-17T01:00:03.832Z,27.80
2018-08-17T01:03:11.395Z,27.80
2018-08-17T01:06:20.105Z,27.80
2018-08-17T01:09:28.613Z,27.80
2018-08-17T01:12:36.358Z,27.90
2018-08-17T01:15:46.787Z,27.80
2018-08-17T01:18:55.957Z,27.80
2018-08-17T01:22:04.400Z,27.90
2018-08-17T01:25:12.591Z,27.80
2018-08-17T01:28:22.221Z,27.80
2018-08-17T01:31:29.999Z,27.80
2018-08-17T01:34:37.929Z,27.80
2018-08-17T01:37:46.006Z,27.80
2018-08-17T01:40:55.619Z,27.90
2018-08-17T01:44:03.747Z,27.90
2018-08-17T01:47:11.711Z,27.90
2018-08-17T01:50:20.962Z,27.80
2018-08-17T01:53:28.701Z,27.80
2018-08-17T01:56:36.410Z,27.80
2018-08-17T01:59:46.593Z,27.80
2018-08-17T02:02:54.971Z,27.80
2018-08-17T02:06:02.240Z,27.90
2018-08-17T02:09:09.327Z,27.80
2018-08-17T02:12:17.915Z,27.90
2018-08-17T02:15:26.411Z,27.80
2018-08-17T02:18:34.675Z,27.80
2018-08-17T02:21:42.547Z,27.90
2018-08-17T02:24:51.751Z,27.80
2018-08-17T02:27:59.904Z,27.80
2018-08-17T02:31:06.889Z,27.80
2018-08-17T02:34:14.816Z,27.80
2018-08-17T02:37:23.551Z,27.80
2018-08-17T02:40:31.505Z,27.80
2018-08-17T02:43:40.830Z,27.90
2018-08-17T02:46:49.448Z,27.90
2018-08-17T02:49:57.829Z,27.90
2018-08-17T02:53:06.560Z,27.90
2018-08-17T02:56:15.409Z,27.90
2018-08-17T02:59:23.721Z,27.80
2018-08-17T03:02:31.161Z,27.80
2018-08-17T03:05:38.803Z,27.80
2018-08-17T03:08:49.075Z,27.80
2018-08-17T03:11:57.429Z,27.80
2018-08-17T03:15:05.757Z,27.90
2018-08-17T03:18:14.574Z,27.90
2018-08-17T03:21:23.417Z,27.90
2018-08-17T03:24:31.897Z,27.90
2018-08-17T03:27:39.587Z,27.90
2018-08-17T03:30:48.948Z,27.90
2018-08-17T03:33:57.085Z,27.90
2018-08-17T03:37:05.187Z,27.90
2018-08-17T03:40:13.209Z,27.90
2018-08-17T03:43:22.385Z,27.80
2018-08-17T03:46:30.501Z,27.80
2018-08-17T03:49:38.903Z,27.90
2018-08-17T03:52:47.361Z,27.90
2018-08-17T03:55:54.616Z,27.90
2018-08-17T03:59:02.159Z,27.90
2018-08-17T04:02:11.482Z,27.90
2018-08-17T04:06:27.186Z,27.90
2018-08-17T04:09:36.103Z,27.50
2018-08-17T04:12:44.501Z,27.30
2018-08-17T04:15:53.489Z,27.10
2018-08-17T04:19:08.265Z,26.90
2018-08-17T04:22:19.651Z,26.80
2018-08-17T04:25:26.254Z,26.70
2018-08-17T04:28:34.188Z,26.60
2018-08-17T04:31:41.836Z,26.40
2018-08-17T04:34:50.109Z,26.40
2018-08-17T04:37:58.804Z,26.30
2018-08-17T04:41:07.804Z,26.20
2018-08-17T04:44:16.539Z,26.10
2018-08-17T04:47:25.770Z,26.10
2018-08-17T04:50:34.701Z,26.00
2018-08-17T04:53:43.124Z,25.90
2018-08-17T04:56:51.165Z,25.80
2018-08-17T04:59:59.122Z,25.80
2018-08-17T05:03:05.876Z,25.70
2018-08-17T05:06:13.678Z,25.60
2018-08-17T05:09:22.556Z,25.60
2018-08-17T05:12:30.876Z,25.60
2018-08-17T05:15:39.014Z,25.50
2018-08-17T05:18:46.796Z,25.40
2018-08-17T05:21:55.798Z,25.40
2018-08-17T05:25:02.696Z,25.40
2018-08-17T05:28:10.568Z,25.40
2018-08-17T05:31:18.620Z,25.40
2018-08-17T05:34:26.504Z,25.30
2018-08-17T05:37:35.573Z,25.30
2018-08-17T05:40:45.709Z,25.20
2018-08-17T05:43:52.970Z,25.20
2018-08-17T05:47:01.271Z,25.20
2018-08-17T05:50:08.628Z,25.20
2018-08-17T05:53:16.531Z,25.10
2018-08-17T05:56:25.902Z,25.10
2018-08-17T05:59:33.180Z,25.10
2018-08-17T06:02:42.607Z,25.00
2018-08-17T06:05:50.094Z,24.90
2018-08-17T06:08:58.944Z,24.90
2018-08-17T06:12:06.744Z,24.90
2018-08-17T06:15:15.939Z,24.90
2018-08-17T06:18:23.853Z,24.90
2018-08-17T06:21:32.764Z,24.90
2018-08-17T06:24:41.979Z,24.90
2018-08-17T06:27:50.342Z,24.90
2018-08-17T06:30:59.930Z,24.80
2018-08-17T06:34:08.475Z,24.70
2018-08-17T06:37:17.996Z,24.70
2018-08-17T06:40:25.743Z,24.70
2018-08-17T06:43:34.924Z,24.70
2018-08-17T06:46:44.478Z,24.60
2018-08-17T06:49:53.160Z,24.70
2018-08-17T06:53:01.959Z,24.60
2018-08-17T06:56:10.951Z,24.70
2018-08-17T06:59:15.718Z,24.60
2018-08-17T07:02:23.299Z,24.60
2018-08-17T07:05:31.360Z,24.60
2018-08-17T07:08:39.840Z,24.50
2018-08-17T07:11:49.049Z,24.50
2018-08-17T07:14:58.179Z,24.40
2018-08-17T07:18:06.241Z,24.50
2018-08-17T07:21:15.477Z,24.50
2018-08-17T07:24:23.597Z,24.50
2018-08-17T07:27:33.447Z,24.50
2018-08-17T07:30:41.452Z,24.40
2018-08-17T07:33:49.032Z,24.40
2018-08-17T07:36:56.449Z,24.30
2018-08-17T07:40:04.600Z,24.30
2018-08-17T07:43:12.832Z,24.30
2018-08-17T07:46:20.572Z,24.30
2018-08-17T07:49:30.107Z,24.30
2018-08-17T07:52:38.307Z,24.30
2018-08-17T07:55:47.370Z,24.30
2018-08-17T07:58:54.678Z,24.30
2018-08-17T08:02:03.974Z,24.20
2018-08-17T08:05:12.198Z,24.20
2018-08-17T08:08:20.884Z,24.10
2018-08-17T08:11:31.140Z,24.10
2018-08-17T08:14:39.096Z,24.20
2018-08-17T08:17:47.699Z,24.20
2018-08-17T08:21:00.548Z,24.20
2018-08-17T08:24:09.190Z,24.20
2018-08-17T08:27:17.658Z,24.10
2018-08-17T08:30:26.338Z,24.10
2018-08-17T08:33:35.138Z,24.10
2018-08-17T08:36:44.647Z,24.10
2018-08-17T08:39:52.477Z,24.10
2018-08-17T08:43:00.290Z,24.10
2018-08-17T08:46:09.335Z,24.00
2018-08-17T08:49:16.912Z,24.00
2018-08-17T08:52:25.798Z,24.00
2018-08-17T08:55:34.538Z,24.00
2018-08-17T08:58:44.758Z,24.00
2018-08-17T09:01:53.684Z,24.00
2018-08-17T09:05:01.921Z,24.00
2018-08-17T09:08:09.839Z,24.00
2018-08-17T09:11:18.174Z,24.00
2018-08-17T09:14:26.641Z,24.00
2018-08-17T09:17:34.796Z,23.90
2018-08-17T09:20:43.045Z,23.90
2018-08-17T09:23:50.720Z,24.00
2018-08-17T09:26:58.471Z,24.00
2018-08-17T09:30:05.861Z,24.00
2018-08-17T09:33:14.540Z,23.90
2018-08-17T09:36:23.917Z,23.90
2018-08-17T09:39:33.431Z,23.80
2018-08-17T09:42:40.642Z,23.80
2018-08-17T09:45:50.238Z,23.90
2018-08-17T09:48:58.672Z,23.80
2018-08-17T09:52:07.142Z,23.80
2018-08-17T09:55:17.143Z,23.90
2018-08-17T09:58:24.508Z,23.80
2018-08-17T10:01:37.354Z,23.90
2018-08-17T10:04:50.436Z,23.90
2018-08-17T10:08:03.473Z,23.80
2018-08-17T10:11:11.202Z,23.80
2018-08-17T10:14:20.897Z,23.80
2018-08-17T10:17:29.061Z,23.70
2018-08-17T10:20:43.505Z,23.70
2018-08-17T10:23:51.895Z,23.80
2018-08-17T10:27:02.005Z,23.80
2018-08-17T10:30:10.627Z,23.80
2018-08-17T10:33:20.144Z,23.80
2018-08-17T10:36:29.491Z,23.90
2018-08-17T10:39:37.107Z,23.80
2018-08-17T10:42:43.998Z,23.80
2018-08-17T10:45:52.128Z,23.70
2018-08-17T10:49:01.613Z,23.70
2018-08-17T10:52:11.118Z,23.70
2018-08-17T10:55:19.833Z,23.80
2018-08-17T10:58:27.989Z,23.80
2018-08-17T11:01:38.496Z,23.90
2018-08-17T11:04:46.502Z,23.80
2018-08-17T11:07:54.828Z,23.80
2018-08-17T11:11:04.650Z,23.80
2018-08-17T11:14:13.360Z,23.70
2018-08-17T11:17:22.077Z,23.70
2018-08-17T11:20:30.720Z,23.70
2018-08-17T11:23:40.769Z,23.70
2018-08-17T11:26:48.551Z,23.80
2018-08-17T11:29:58.524Z,23.80
2018-08-17T11:33:05.984Z,23.80
2018-08-17T11:36:15.793Z,23.80
2018-08-17T11:39:25.294Z,23.80
2018-08-17T11:42:33.479Z,23.70
2018-08-17T11:45:43.438Z,23.70
2018-08-17T11:48:53.015Z,23.70
2018-08-17T11:52:02.945Z,23.70
2018-08-17T11:55:12.007Z,23.80
2018-08-17T11:58:19.364Z,23.80
2018-08-17T12:01:32.509Z,23.80
2018-08-17T12:04:40.059Z,23.80
2018-08-17T12:07:49.151Z,23.80
2018-08-17T12:11:00.619Z,23.80
2018-08-17T12:14:08.701Z,23.80
2018-08-17T12:17:16.570Z,23.80
2018-08-17T12:20:25.411Z,23.80
2018-08-17T12:23:34.029Z,23.80
2018-08-17T12:26:47.350Z,23.80
2018-08-17T12:29:56.864Z,23.90
2018-08-17T12:33:05.426Z,23.90
2018-08-17T12:36:12.724Z,23.90
2018-08-17T12:39:21.295Z,23.90
2018-08-17T12:42:29.134Z,23.80
2018-08-17T12:45:37.939Z,23.80
2018-08-17T12:48:45.675Z,23.80
2018-08-17T12:51:55.578Z,23.80
2018-08-17T12:55:03.420Z,23.80
2018-08-17T12:58:12.711Z,23.90
2018-08-17T13:01:22.308Z,23.90
2018-08-17T13:04:32.006Z,23.90
2018-08-17T13:07:39.519Z,23.90
2018-08-17T13:10:47.803Z,23.80
2018-08-17T13:13:56.643Z,23.80
2018-08-17T13:17:08.781Z,23.80
2018-08-17T13:20:18.360Z,23.80
2018-08-17T13:23:27.495Z,23.90
2018-08-17T13:26:36.233Z,24.00
2018-08-17T13:29:44.268Z,24.00
2018-08-17T13:32:53.496Z,24.00
2018-08-17T13:36:03.238Z,24.00
2018-08-17T13:39:10.751Z,23.90
2018-08-17T13:42:19.683Z,23.90
2018-08-17T13:45:27.263Z,23.90
2018-08-17T13:48:36.057Z,23.90
2018-08-17T13:51:44.738Z,23.90
2018-08-17T13:54:53.310Z,23.90
2018-08-17T13:58:00.945Z,24.00
2018-08-17T14:01:10.562Z,23.90
2018-08-17T14:04:18.568Z,23.90
2018-08-17T14:07:25.483Z,24.00
2018-08-17T14:10:34.654Z,23.90
2018-08-17T14:13:43.993Z,23.90
2018-08-17T14:16:51.923Z,23.90
2018-08-17T14:20:00.807Z,23.80
2018-08-17T14:23:09.121Z,23.90
2018-08-17T14:26:19.360Z,23.90
2018-08-17T14:29:28.594Z,24.00
2018-08-17T14:32:36.980Z,23.90
2018-08-17T14:35:44.308Z,23.90
2018-08-17T14:38:55.206Z,23.90
2018-08-17T14:42:13.366Z,23.80
2018-08-17T14:45:20.801Z,23.90
2018-08-17T14:48:29.398Z,23.80
2018-08-17T14:51:38.256Z,23.90
2018-08-17T14:54:46.785Z,23.90
2018-08-17T14:57:53.041Z,24.00
2018-08-17T15:01:01.723Z,24.00
2018-08-17T15:04:11.581Z,23.90
2018-08-17T15:07:21.540Z,23.90
2018-08-17T15:10:31.176Z,23.90
2018-08-17T15:13:39.757Z,23.90
2018-08-17T15:16:48.383Z,23.80
2018-08-17T15:19:56.148Z,23.90
2018-08-17T15:23:04.592Z,23.90
2018-08-17T15:26:14.258Z,23.90
2018-08-17T15:29:21.905Z,23.90
2018-08-17T15:32:30.316Z,23.90
2018-08-17T15:35:39.080Z,23.80
2018-08-17T15:38:47.332Z,23.90
2018-08-17T15:41:59.582Z,23.90
2018-08-17T15:45:08.039Z,23.80
2018-08-17T15:48:16.180Z,23.90
2018-08-17T15:51:24.789Z,23.90
2018-08-17T15:54:33.784Z,23.90
2018-08-17T15:57:42.230Z,23.90
2018-08-17T16:00:52.577Z,23.90
2018-08-17T16:04:01.328Z,23.80
2018-08-17T16:07:10.183Z,23.80
2018-08-17T16:10:18.289Z,23.80
2018-08-17T16:13:27.686Z,23.80
2018-08-17T16:16:35.444Z,23.80
2018-08-17T16:19:44.915Z,23.80
2018-08-17T16:22:54.428Z,23.80
2018-08-17T16:26:03.342Z,23.90
2018-08-17T16:29:13.153Z,23.90
2018-08-17T16:32:24.525Z,23.80
2018-08-17T16:35:33.202Z,23.90
2018-08-17T16:38:41.304Z,23.80
2018-08-17T16:41:48.713Z,23.80
2018-08-17T16:44:56.415Z,23.80
2018-08-17T16:48:05.653Z,23.80
2018-08-17T16:51:16.230Z,23.90
2018-08-17T16:54:23.722Z,23.90
2018-08-17T16:57:31.694Z,23.90
2018-08-17T17:00:41.181Z,23.90
2018-08-17T17:03:49.850Z,23.80
2018-08-17T17:06:58.156Z,24.00
2018-08-17T17:10:07.007Z,24.10
2018-08-17T17:13:15.998Z,24.20
2018-08-17T17:16:24.317Z,24.40
2018-08-17T17:19:33.131Z,24.50
2018-08-17T17:22:42.047Z,24.60
2018-08-17T17:25:51.120Z,24.80
2018-08-17T17:28:59.367Z,24.80
2018-08-17T17:32:05.549Z,24.90
2018-08-17T17:35:14.786Z,25.00
2018-08-17T17:38:22.281Z,25.00
2018-08-17T17:41:30.272Z,25.10
2018-08-17T17:44:38.244Z,25.10
2018-08-17T17:47:46.960Z,25.10
2018-08-17T17:50:54.284Z,25.30
2018-08-17T17:54:04.307Z,25.30
2018-08-17T17:57:17.065Z,25.40
2018-08-17T18:00:24.820Z,25.50
2018-08-17T18:03:34.277Z,25.50
2018-08-17T18:06:41.978Z,25.50
2018-08-17T18:09:49.743Z,25.50
2018-08-17T18:12:57.885Z,25.60
2018-08-17T18:16:06.614Z,25.50
2018-08-17T18:19:15.398Z,25.60
2018-08-17T18:22:29.058Z,25.80
2018-08-17T18:25:40.231Z,25.80
2018-08-17T18:28:47.677Z,25.80
2018-08-17T18:31:56.850Z,25.80
2018-08-17T18:35:04.761Z,25.80
2018-08-17T18:38:13.537Z,25.80
2018-08-17T18:41:20.943Z,25.80
2018-08-17T18:44:29.475Z,25.80
2018-08-17T18:47:38.360Z,25.90
2018-08-17T18:50:46.008Z,25.90
2018-08-17T18:53:53.958Z,26.00
2018-08-17T18:57:03.189Z,26.00
2018-08-17T19:00:12.585Z,26.00
2018-08-17T19:03:21.003Z,26.00
2018-08-17T19:06:28.481Z,26.00
2018-08-17T19:09:35.541Z,26.00
2018-08-17T19:12:44.671Z,26.10
2018-08-17T19:15:58.835Z,26.10
2018-08-17T19:19:07.085Z,26.20
2018-08-17T19:22:14.479Z,26.20
2018-08-17T19:25:23.028Z,26.20
2018-08-17T19:28:32.399Z,26.20
2018-08-17T19:31:40.079Z,26.20
2018-08-17T19:34:48.469Z,26.30
2018-08-17T19:37:56.653Z,26.30
2018-08-17T19:41:05.954Z,26.30
2018-08-17T19:44:15.380Z,26.30
2018-08-17T19:47:25.064Z,26.30
2018-08-17T19:50:34.876Z,26.30
2018-08-17T19:53:42.200Z,26.40
2018-08-17T20:00:02.969Z,26.40
2018-08-17T20:03:12.078Z,26.40
2018-08-17T20:06:20.710Z,26.40
2018-08-17T20:09:28.117Z,26.40
2018-08-17T20:12:36.686Z,26.40
2018-08-17T20:15:45.370Z,26.40
2018-08-17T20:18:53.367Z,26.50
2018-08-17T20:22:01.352Z,26.40
2018-08-17T20:25:09.245Z,26.50
2018-08-17T20:28:17.313Z,26.50
2018-08-17T20:31:25.240Z,26.50
2018-08-17T20:34:33.379Z,26.50
2018-08-17T20:37:42.122Z,26.50
2018-08-17T20:40:50.083Z,26.50
2018-08-17T20:43:58.140Z,26.50
2018-08-17T20:47:10.503Z,26.50
2018-08-17T20:50:20.807Z,26.50
2018-08-17T20:53:30.479Z,26.60
2018-08-17T20:56:38.643Z,26.50
2018-08-17T20:59:47.034Z,26.60
2018-08-17T21:02:55.469Z,26.60
2018-08-17T21:06:03.283Z,26.60
2018-08-17T21:09:11.125Z,26.50
2018-08-17T21:12:18.918Z,26.50
2018-08-17T21:15:27.851Z,26.50
2018-08-17T21:18:35.835Z,26.60
2018-08-17T21:21:46.693Z,26.60
2018-08-17T21:24:52.855Z,26.60
2018-08-17T21:28:00.655Z,26.70
2018-08-17T21:31:07.661Z,26.60
2018-08-17T21:34:15.258Z,26.70
2018-08-17T21:37:24.003Z,26.60
2018-08-17T21:40:36.838Z,26.60
2018-08-17T21:43:46.209Z,26.60
2018-08-17T21:47:25.139Z,26.70
2018-08-17T21:50:33.461Z,26.70
2018-08-17T21:53:41.681Z,26.70
2018-08-17T21:56:49.800Z,26.70
2018-08-17T21:59:59.011Z,26.70
2018-08-17T22:03:07.058Z,26.70
2018-08-17T22:06:14.879Z,26.70
2018-08-17T22:09:24.975Z,26.70
2018-08-17T22:12:33.456Z,26.70
2018-08-17T22:15:45.421Z,26.80
2018-08-17T22:18:53.508Z,26.80
2018-08-17T22:22:02.199Z,26.80
2018-08-17T22:25:12.398Z,26.80
2018-08-17T22:28:20.113Z,26.80
2018-08-17T22:31:29.450Z,26.70
2018-08-17T22:34:36.999Z,26.70
2018-08-17T22:37:46.182Z,26.70
2018-08-17T22:40:54.370Z,26.80
2018-08-17T22:44:01.151Z,26.80
2018-08-17T22:47:15.510Z,26.80
2018-08-17T22:50:25.021Z,26.80
2018-08-17T22:53:32.951Z,26.80
2018-08-17T22:56:40.689Z,26.90
2018-08-17T22:59:48.726Z,26.80
2018-08-17T23:02:59.172Z,26.80
2018-08-17T23:06:08.096Z,26.80
2018-08-17T23:09:17.815Z,26.80
2018-08-17T23:12:26.969Z,26.90
2018-08-17T23:15:34.663Z,26.90
2018-08-17T23:18:43.086Z,26.90
2018-08-17T23:21:51.626Z,26.90
2018-08-17T23:24:59.084Z,26.90
2018-08-17T23:28:07.524Z,26.80
2018-08-17T23:31:16.411Z,26.90
2018-08-17T23:34:24.525Z,26.90
2018-08-17T23:37:32.931Z,26.90
2018-08-17T23:40:40.422Z,26.90
2018-08-17T23:43:47.902Z,26.90
2018-08-17T23:46:56.113Z,27.00
2018-08-17T23:50:04.885Z,27.00
2018-08-17T23:53:12.650Z,27.00
2018-08-17T23:56:17.045Z,27.00
2018-08-17T23:59:25.213Z,27.00
